sensor_id;sensor_type;location;lat;lon;timestamp;pressure;altitude;pressure_sealevel;temperature;humidity
20015;BME280;61787;42.022;23.078;2022-12-18T00:00:55;97377.03;;;10.52;100.00
20015;BME280;61787;42.022;23.078;2022-12-18T00:01:58;97382.56;;;10.55;100.00
20015;BME280;61787;42.022;23.078;2022-12-18T00:03:02;97387.75;;;10.60;100.00
20015;BME280;61787;42.022;23.078;2022-12-18T00:04:06;97389.19;;;10.66;100.00
20015;BME280;61787;42.022;23.078;2022-12-18T00:05:09;97391.84;;;10.66;100.00
20015;BME280;61787;42.022;23.078;2022-12-18T00:06:11;97393.25;;;10.73;100.00
20015;BME280;61787;42.022;23.078;2022-12-18T00:07:13;97402.25;;;10.77;100.00
20015;BME280;61787;42.022;23.078;2022-12-18T00:08:14;97391.53;;;10.77;100.00
20015;BME280;61787;42.022;23.078;2022-12-18T00:09:16;97400.50;;;10.81;100.00
20015;BME280;61787;42.022;23.078;2022-12-18T00:10:17;97399.84;;;10.84;100.00
20015;BME280;61787;42.022;23.078;2022-12-18T00:11:22;97400.03;;;10.87;100.00
20015;BME280;61787;42.022;23.078;2022-12-18T00:12:24;97399.06;;;10.92;100.00
20015;BME280;61787;42.022;23.078;2022-12-18T00:13:26;97393.16;;;10.98;100.00
20015;BME280;61787;42.022;23.078;2022-12-18T00:14:28;97397.41;;;11.08;100.00
20015;BME280;61787;42.022;23.078;2022-12-18T00:15:30;97399.94;;;11.13;100.00
20015;BME280;61787;42.022;23.078;2022-12-18T00:16:31;97392.34;;;11.15;100.00
20015;BME280;61787;42.022;23.078;2022-12-18T00:17:34;97390.13;;;11.17;100.00
20015;BME280;61787;42.022;23.078;2022-12-18T00:18:36;97401.00;;;11.21;100.00
20015;BME280;61787;42.022;23.078;2022-12-18T00:19:38;97398.00;;;11.22;100.00
20015;BME280;61787;42.022;23.078;2022-12-18T00:20:40;97397.34;;;11.25;100.00
20015;BME280;61787;42.022;23.078;2022-12-18T00:21:42;97402.41;;;11.27;100.00
20015;BME280;61787;42.022;23.078;2022-12-18T00:22:44;97403.63;;;11.29;100.00
20015;BME280;61787;42.022;23.078;2022-12-18T00:23:47;97405.22;;;11.30;100.00
20015;BME280;61787;42.022;23.078;2022-12-18T00:24:49;97402.22;;;11.32;100.00
20015;BME280;61787;42.022;23.078;2022-12-18T00:25:50;97406.13;;;11.34;100.00
20015;BME280;61787;42.022;23.078;2022-12-18T00:26:52;97407.91;;;11.30;100.00
20015;BME280;61787;42.022;23.078;2022-12-18T00:27:53;97410.13;;;11.28;100.00
20015;BME280;61787;42.022;23.078;2022-12-18T00:28:58;97406.50;;;11.24;100.00
20015;BME280;61787;42.022;23.078;2022-12-18T00:30:00;97405.72;;;11.24;100.00
20015;BME280;61787;42.022;23.078;2022-12-18T00:31:08;97414.72;;;11.19;100.00
20015;BME280;61787;42.022;23.078;2022-12-18T00:32:10;97420.28;;;11.23;100.00
20015;BME280;61787;42.022;23.078;2022-12-18T00:33:12;97418.06;;;11.16;100.00
20015;BME280;61787;42.022;23.078;2022-12-18T00:34:13;97425.81;;;11.18;100.00
20015;BME280;61787;42.022;23.078;2022-12-18T00:35:15;97411.44;;;11.13;100.00
20015;BME280;61787;42.022;23.078;2022-12-18T00:36:19;97421.09;;;11.06;100.00
20015;BME280;61787;42.022;23.078;2022-12-18T00:37:20;97419.69;;;11.00;100.00
20015;BME280;61787;42.022;23.078;2022-12-18T00:38:22;97427.91;;;10.95;100.00
20015;BME280;61787;42.022;23.078;2022-12-18T00:39:24;97423.66;;;10.94;100.00
20015;BME280;61787;42.022;23.078;2022-12-18T00:40:25;97425.09;;;10.91;100.00
20015;BME280;61787;42.022;23.078;2022-12-18T00:41:27;97428.88;;;10.90;100.00
20015;BME280;61787;42.022;23.078;2022-12-18T00:42:47;97427.94;;;10.78;100.00
20015;BME280;61787;42.022;23.078;2022-12-18T00:43:58;97425.44;;;10.64;100.00
20015;BME280;61787;42.022;23.078;2022-12-18T00:44:59;97431.94;;;10.54;100.00
20015;BME280;61787;42.022;23.078;2022-12-18T00:46:01;97431.63;;;10.47;100.00
20015;BME280;61787;42.022;23.078;2022-12-18T00:47:03;97438.09;;;10.46;100.00
20015;BME280;61787;42.022;23.078;2022-12-18T00:48:05;97442.03;;;10.40;100.00
20015;BME280;61787;42.022;23.078;2022-12-18T00:49:06;97440.31;;;10.36;100.00
20015;BME280;61787;42.022;23.078;2022-12-18T00:50:08;97445.66;;;10.36;100.00
20015;BME280;61787;42.022;23.078;2022-12-18T00:51:10;97443.91;;;10.31;100.00
20015;BME280;61787;42.022;23.078;2022-12-18T00:52:12;97442.34;;;10.30;100.00
20015;BME280;61787;42.022;23.078;2022-12-18T00:53:13;97445.34;;;10.29;100.00
20015;BME280;61787;42.022;23.078;2022-12-18T00:54:16;97446.44;;;10.27;100.00
20015;BME280;61787;42.022;23.078;2022-12-18T00:55:18;97452.75;;;10.23;100.00
20015;BME280;61787;42.022;23.078;2022-12-18T00:56:23;97451.50;;;10.20;100.00
20015;BME280;61787;42.022;23.078;2022-12-18T00:57:24;97447.22;;;10.19;100.00
20015;BME280;61787;42.022;23.078;2022-12-18T00:58:26;97452.91;;;10.18;100.00
20015;BME280;61787;42.022;23.078;2022-12-18T00:59:28;97445.97;;;10.17;100.00
20015;BME280;61787;42.022;23.078;2022-12-18T01:00:29;97453.50;;;10.15;100.00
20015;BME280;61787;42.022;23.078;2022-12-18T01:01:31;97449.84;;;10.11;100.00
20015;BME280;61787;42.022;23.078;2022-12-18T01:02:34;97447.19;;;10.11;100.00
20015;BME280;61787;42.022;23.078;2022-12-18T01:03:36;97455.22;;;10.11;100.00
20015;BME280;61787;42.022;23.078;2022-12-18T01:04:38;97454.59;;;10.14;100.00
20015;BME280;61787;42.022;23.078;2022-12-18T01:05:41;97453.22;;;10.16;100.00
20015;BME280;61787;42.022;23.078;2022-12-18T01:06:42;97455.59;;;10.18;100.00
20015;BME280;61787;42.022;23.078;2022-12-18T01:07:45;97454.47;;;10.19;100.00
20015;BME280;61787;42.022;23.078;2022-12-18T01:08:46;97461.56;;;10.15;100.00
20015;BME280;61787;42.022;23.078;2022-12-18T01:09:48;97456.19;;;10.15;100.00
20015;BME280;61787;42.022;23.078;2022-12-18T01:10:49;97456.69;;;10.17;100.00
20015;BME280;61787;42.022;23.078;2022-12-18T01:11:51;97450.84;;;10.15;100.00
20015;BME280;61787;42.022;23.078;2022-12-18T01:12:52;97449.25;;;10.14;100.00
20015;BME280;61787;42.022;23.078;2022-12-18T01:13:54;97457.44;;;10.09;100.00
20015;BME280;61787;42.022;23.078;2022-12-18T01:14:56;97448.31;;;10.10;100.00
20015;BME280;61787;42.022;23.078;2022-12-18T01:15:58;97456.94;;;10.07;100.00
20015;BME280;61787;42.022;23.078;2022-12-18T01:17:00;97463.91;;;10.08;100.00
20015;BME280;61787;42.022;23.078;2022-12-18T01:18:05;97459.03;;;10.10;100.00
20015;BME280;61787;42.022;23.078;2022-12-18T01:19:07;97465.47;;;10.09;100.00
20015;BME280;61787;42.022;23.078;2022-12-18T01:20:09;97459.63;;;10.07;100.00
20015;BME280;61787;42.022;23.078;2022-12-18T01:21:15;97463.91;;;10.08;100.00
20015;BME280;61787;42.022;23.078;2022-12-18T01:22:17;97458.69;;;10.03;100.00
20015;BME280;61787;42.022;23.078;2022-12-18T01:23:18;97469.09;;;10.04;100.00
20015;BME280;61787;42.022;23.078;2022-12-18T01:24:20;97462.78;;;10.00;100.00
20015;BME280;61787;42.022;23.078;2022-12-18T01:25:22;97460.72;;;9.97;100.00
20015;BME280;61787;42.022;23.078;2022-12-18T01:26:24;97466.88;;;9.98;100.00
20015;BME280;61787;42.022;23.078;2022-12-18T01:27:26;97473.19;;;10.02;100.00
20015;BME280;61787;42.022;23.078;2022-12-18T01:28:28;97468.44;;;9.99;100.00
20015;BME280;61787;42.022;23.078;2022-12-18T01:29:29;97470.03;;;10.00;100.00
20015;BME280;61787;42.022;23.078;2022-12-18T01:30:31;97474.13;;;9.97;100.00
20015;BME280;61787;42.022;23.078;2022-12-18T01:31:33;97470.50;;;10.02;100.00
20015;BME280;61787;42.022;23.078;2022-12-18T01:32:35;97473.97;;;10.02;100.00
20015;BME280;61787;42.022;23.078;2022-12-18T01:33:37;97473.19;;;10.02;100.00
20015;BME280;61787;42.022;23.078;2022-12-18T01:34:39;97470.03;;;10.00;100.00
20015;BME280;61787;42.022;23.078;2022-12-18T01:35:42;97474.28;;;10.01;100.00
20015;BME280;61787;42.022;23.078;2022-12-18T01:36:44;97479.16;;;9.99;100.00
20015;BME280;61787;42.022;23.078;2022-12-18T01:37:45;97476.50;;;9.99;100.00
20015;BME280;61787;42.022;23.078;2022-12-18T01:38:47;97480.75;;;10.00;100.00
20015;BME280;61787;42.022;23.078;2022-12-18T01:39:49;97476.34;;;10.04;100.00
20015;BME280;61787;42.022;23.078;2022-12-18T01:40:59;97477.44;;;10.03;100.00
20015;BME280;61787;42.022;23.078;2022-12-18T01:42:10;97478.53;;;10.02;100.00
20015;BME280;61787;42.022;23.078;2022-12-18T01:43:12;97481.69;;;10.04;100.00
20015;BME280;61787;42.022;23.078;2022-12-18T01:45:49;97483.91;;;10.02;100.00
20015;BME280;61787;42.022;23.078;2022-12-18T01:46:51;97490.53;;;10.04;100.00
20015;BME280;61787;42.022;23.078;2022-12-18T01:47:58;97486.56;;;10.02;100.00
20015;BME280;61787;42.022;23.078;2022-12-18T01:49:01;97476.94;;;10.01;100.00
20015;BME280;61787;42.022;23.078;2022-12-18T01:50:08;97485.31;;;9.99;100.00
20015;BME280;61787;42.022;23.078;2022-12-18T01:51:11;97493.66;;;9.98;100.00
20015;BME280;61787;42.022;23.078;2022-12-18T01:52:14;97487.34;;;9.94;100.00
20015;BME280;61787;42.022;23.078;2022-12-18T01:53:19;97499.47;;;9.91;100.00
20015;BME280;61787;42.022;23.078;2022-12-18T01:54:22;97492.53;;;9.90;100.00
20015;BME280;61787;42.022;23.078;2022-12-18T01:55:26;97498.06;;;9.94;100.00
20015;BME280;61787;42.022;23.078;2022-12-18T01:56:29;97493.50;;;9.94;100.00
20015;BME280;61787;42.022;23.078;2022-12-18T01:57:31;97491.13;;;9.93;100.00
20015;BME280;61787;42.022;23.078;2022-12-18T01:58:46;97490.19;;;9.89;100.00
20015;BME280;61787;42.022;23.078;2022-12-18T01:59:52;97498.22;;;9.89;100.00
20015;BME280;61787;42.022;23.078;2022-12-18T02:00:55;97495.97;;;9.82;100.00
20015;BME280;61787;42.022;23.078;2022-12-18T02:01:56;97488.44;;;9.84;100.00
20015;BME280;61787;42.022;23.078;2022-12-18T02:02:58;97493.00;;;9.83;100.00
20015;BME280;61787;42.022;23.078;2022-12-18T02:04:23;97498.97;;;9.80;100.00
20015;BME280;61787;42.022;23.078;2022-12-18T02:06:51;97495.97;;;9.73;100.00
20015;BME280;61787;42.022;23.078;2022-12-18T02:09:31;97502.13;;;9.74;100.00
20015;BME280;61787;42.022;23.078;2022-12-18T02:12:16;97505.09;;;9.72;100.00
20015;BME280;61787;42.022;23.078;2022-12-18T02:15:41;97498.44;;;9.70;100.00
20015;BME280;61787;42.022;23.078;2022-12-18T02:16:51;97498.28;;;9.66;100.00
20015;BME280;61787;42.022;23.078;2022-12-18T02:17:59;97500.50;;;9.64;100.00
20015;BME280;61787;42.022;23.078;2022-12-18T02:20:44;97498.59;;;9.65;100.00
20015;BME280;61787;42.022;23.078;2022-12-18T02:24:19;97500.81;;;9.71;100.00
20015;BME280;61787;42.022;23.078;2022-12-18T02:26:57;97498.91;;;9.63;100.00
20015;BME280;61787;42.022;23.078;2022-12-18T02:28:01;97502.06;;;9.65;100.00
20015;BME280;61787;42.022;23.078;2022-12-18T02:29:12;97502.84;;;9.66;100.00
20015;BME280;61787;42.022;23.078;2022-12-18T02:30:15;97511.22;;;9.64;100.00
20015;BME280;61787;42.022;23.078;2022-12-18T02:31:21;97512.47;;;9.67;100.00
20015;BME280;61787;42.022;23.078;2022-12-18T02:32:35;97510.44;;;9.72;100.00
20015;BME280;61787;42.022;23.078;2022-12-18T02:33:39;97503.22;;;9.73;100.00
20015;BME280;61787;42.022;23.078;2022-12-18T02:34:43;97506.19;;;9.71;100.00
20015;BME280;61787;42.022;23.078;2022-12-18T02:35:46;97506.19;;;9.71;100.00
20015;BME280;61787;42.022;23.078;2022-12-18T02:36:49;97513.25;;;9.67;100.00
20015;BME280;61787;42.022;23.078;2022-12-18T02:37:53;97504.59;;;9.70;100.00
20015;BME280;61787;42.022;23.078;2022-12-18T02:38:56;97509.78;;;9.67;100.00
20015;BME280;61787;42.022;23.078;2022-12-18T02:39:59;97501.59;;;9.63;100.00
20015;BME280;61787;42.022;23.078;2022-12-18T02:41:02;97508.66;;;9.59;100.00
20015;BME280;61787;42.022;23.078;2022-12-18T02:42:04;97512.91;;;9.60;100.00
20015;BME280;61787;42.022;23.078;2022-12-18T02:43:11;97508.66;;;9.59;100.00
20015;BME280;61787;42.022;23.078;2022-12-18T02:44:13;97508.84;;;9.63;100.00
20015;BME280;61787;42.022;23.078;2022-12-18T02:45:16;97514.97;;;9.63;100.00
20015;BME280;61787;42.022;23.078;2022-12-18T02:46:31;97515.94;;;9.67;100.00
20015;BME280;61787;42.022;23.078;2022-12-18T02:47:36;97518.13;;;9.65;100.00
20015;BME280;61787;42.022;23.078;2022-12-18T02:48:39;97520.50;;;9.67;100.00
20015;BME280;61787;42.022;23.078;2022-12-18T02:49:53;97523.47;;;9.65;100.00
20015;BME280;61787;42.022;23.078;2022-12-18T02:51:16;97520.34;;;9.63;100.00
20015;BME280;61787;42.022;23.078;2022-12-18T02:53:48;97525.22;;;9.70;100.00
20015;BME280;61787;42.022;23.078;2022-12-18T02:56:26;97526.53;;;9.81;100.00
20015;BME280;61787;42.022;23.078;2022-12-18T02:57:33;97527.16;;;9.78;100.00
20015;BME280;61787;42.022;23.078;2022-12-18T03:00:09;97532.22;;;9.79;100.00
20015;BME280;61787;42.022;23.078;2022-12-18T03:01:21;97525.75;;;9.80;100.00
20015;BME280;61787;42.022;23.078;2022-12-18T03:02:37;97528.91;;;9.74;100.00
20015;BME280;61787;42.022;23.078;2022-12-18T03:04:57;97518.66;;;9.76;100.00
20015;BME280;61787;42.022;23.078;2022-12-18T03:06:07;97524.63;;;9.73;100.00
20015;BME280;61787;42.022;23.078;2022-12-18T03:07:16;97530.78;;;9.73;100.00
20015;BME280;61787;42.022;23.078;2022-12-18T03:08:24;97540.53;;;9.69;100.00
20015;BME280;61787;42.022;23.078;2022-12-18T03:09:39;97535.66;;;9.71;100.00
20015;BME280;61787;42.022;23.078;2022-12-18T03:10:50;97534.69;;;9.67;100.00
20015;BME280;61787;42.022;23.078;2022-12-18T03:11:56;97537.38;;;9.67;100.00
20015;BME280;61787;42.022;23.078;2022-12-18T03:14:08;97541.50;;;9.73;100.00
20015;BME280;61787;42.022;23.078;2022-12-18T03:15:04;97542.94;;;9.79;100.00
20015;BME280;61787;42.022;23.078;2022-12-18T03:16:09;97533.91;;;9.75;100.00
20015;BME280;61787;42.022;23.078;2022-12-18T03:17:16;97553.28;;;9.72;100.00
20015;BME280;61787;42.022;23.078;2022-12-18T03:18:24;97544.78;;;9.70;100.00
20015;BME280;61787;42.022;23.078;2022-12-18T03:19:29;97555.03;;;9.68;100.00
20015;BME280;61787;42.022;23.078;2022-12-18T03:20:34;97545.25;;;9.72;100.00
20015;BME280;61787;42.022;23.078;2022-12-18T03:21:42;97554.88;;;9.73;100.00
20015;BME280;61787;42.022;23.078;2022-12-18T03:22:49;97550.78;;;9.76;100.00
20015;BME280;61787;42.022;23.078;2022-12-18T03:23:53;97553.28;;;9.72;100.00
20015;BME280;61787;42.022;23.078;2022-12-18T03:24:56;97552.81;;;9.70;100.00
20015;BME280;61787;42.022;23.078;2022-12-18T03:26:00;97557.19;;;9.66;100.00
20015;BME280;61787;42.022;23.078;2022-12-18T03:27:13;97556.59;;;9.69;100.00
20015;BME280;61787;42.022;23.078;2022-12-18T03:28:20;97555.34;;;9.75;100.00
20015;BME280;61787;42.022;23.078;2022-12-18T03:29:26;97560.69;;;9.75;100.00
20015;BME280;61787;42.022;23.078;2022-12-18T03:30:29;97554.06;;;9.64;100.00
20015;BME280;61787;42.022;23.078;2022-12-18T03:31:40;97557.81;;;9.63;100.00
20015;BME280;61787;42.022;23.078;2022-12-18T03:32:47;97566.31;;;9.65;100.00
20015;BME280;61787;42.022;23.078;2022-12-18T03:34:04;97568.53;;;9.63;100.00
20015;BME280;61787;42.022;23.078;2022-12-18T03:35:10;97565.88;;;9.63;100.00
20015;BME280;61787;42.022;23.078;2022-12-18T03:36:12;97572.31;;;9.62;100.00
20015;BME280;61787;42.022;23.078;2022-12-18T03:37:14;97573.91;;;9.63;100.00
20015;BME280;61787;42.022;23.078;2022-12-18T03:38:16;97565.50;;;9.56;100.00
20015;BME280;61787;42.022;23.078;2022-12-18T03:39:19;97570.34;;;9.54;100.00
20015;BME280;61787;42.022;23.078;2022-12-18T03:41:11;97577.13;;;9.52;100.00
20015;BME280;61787;42.022;23.078;2022-12-18T03:41:52;97573.53;;;9.56;100.00
20015;BME280;61787;42.022;23.078;2022-12-18T03:43:28;97569.91;;;9.52;100.00
20015;BME280;61787;42.022;23.078;2022-12-18T03:45:43;97579.81;;;9.52;100.00
20015;BME280;61787;42.022;23.078;2022-12-18T03:46:55;97580.78;;;9.56;100.00
20015;BME280;61787;42.022;23.078;2022-12-18T03:49:11;97581.69;;;9.51;100.00
20015;BME280;61787;42.022;23.078;2022-12-18T03:50:20;97592.78;;;9.58;100.00
20015;BME280;61787;42.022;23.078;2022-12-18T03:51:36;97590.09;;;9.58;100.00
20015;BME280;61787;42.022;23.078;2022-12-18T03:54:02;97594.59;;;9.49;100.00
20015;BME280;61787;42.022;23.078;2022-12-18T03:55:07;97600.41;;;9.43;100.00
20015;BME280;61787;42.022;23.078;2022-12-18T03:56:09;97597.38;;;9.44;100.00
20015;BME280;61787;42.022;23.078;2022-12-18T03:57:17;97601.47;;;9.41;100.00
20015;BME280;61787;42.022;23.078;2022-12-18T03:58:23;97603.88;;;9.43;100.00
20015;BME280;61787;42.022;23.078;2022-12-18T03:59:27;97601.31;;;9.38;100.00
20015;BME280;61787;42.022;23.078;2022-12-18T04:00:30;97602.28;;;9.42;100.00
20015;BME280;61787;42.022;23.078;2022-12-18T04:01:35;97601.78;;;9.40;100.00
20015;BME280;61787;42.022;23.078;2022-12-18T04:02:43;97604.00;;;9.38;100.00
20015;BME280;61787;42.022;23.078;2022-12-18T04:03:48;97612.44;;;9.31;100.00
20015;BME280;61787;42.022;23.078;2022-12-18T04:04:58;97612.94;;;9.33;100.00
20015;BME280;61787;42.022;23.078;2022-12-18T04:06:00;97616.38;;;9.34;100.00
20015;BME280;61787;42.022;23.078;2022-12-18T04:07:04;97617.50;;;9.33;100.00
20015;BME280;61787;42.022;23.078;2022-12-18T04:08:06;97618.59;;;9.32;100.00
20015;BME280;61787;42.022;23.078;2022-12-18T04:09:08;97621.72;;;9.34;100.00
20015;BME280;61787;42.022;23.078;2022-12-18T04:10:10;97628.19;;;9.33;100.00
20015;BME280;61787;42.022;23.078;2022-12-18T04:11:13;97622.84;;;9.33;100.00
20015;BME280;61787;42.022;23.078;2022-12-18T04:12:15;97626.63;;;9.32;100.00
20015;BME280;61787;42.022;23.078;2022-12-18T04:13:42;97622.84;;;9.33;100.00
20015;BME280;61787;42.022;23.078;2022-12-18T04:14:44;97615.28;;;9.35;100.00
20015;BME280;61787;42.022;23.078;2022-12-18T04:15:46;97628.19;;;9.33;100.00
20015;BME280;61787;42.022;23.078;2022-12-18T04:16:47;97621.25;;;9.32;100.00
20015;BME280;61787;42.022;23.078;2022-12-18T04:17:49;97624.72;;;9.32;100.00
20015;BME280;61787;42.022;23.078;2022-12-18T04:18:51;97627.19;;;9.29;100.00
20015;BME280;61787;42.022;23.078;2022-12-18T04:19:53;97629.03;;;9.20;100.00
20015;BME280;61787;42.022;23.078;2022-12-18T04:20:55;97632.00;;;9.18;100.00
20015;BME280;61787;42.022;23.078;2022-12-18T04:21:56;97635.00;;;9.17;100.00
20015;BME280;61787;42.022;23.078;2022-12-18T04:22:58;97635.78;;;9.17;100.00
20015;BME280;61787;42.022;23.078;2022-12-18T04:23:59;97645.69;;;9.17;100.00
20015;BME280;61787;42.022;23.078;2022-12-18T04:25:01;97641.16;;;9.17;100.00
20015;BME280;61787;42.022;23.078;2022-12-18T04:26:03;97651.66;;;9.14;100.00
20015;BME280;61787;42.022;23.078;2022-12-18T04:27:05;97646.28;;;9.14;100.00
20015;BME280;61787;42.022;23.078;2022-12-18T04:28:06;97646.13;;;9.10;100.00
20015;BME280;61787;42.022;23.078;2022-12-18T04:29:08;97653.34;;;9.10;100.00
20015;BME280;61787;42.022;23.078;2022-12-18T04:30:10;97658.00;;;9.04;100.00
20015;BME280;61787;42.022;23.078;2022-12-18T04:31:12;97646.63;;;8.98;100.00
20015;BME280;61787;42.022;23.078;2022-12-18T04:32:14;97651.91;;;8.90;100.00
20015;BME280;61787;42.022;23.078;2022-12-18T04:33:16;97653.50;;;8.91;100.00
20015;BME280;61787;42.022;23.078;2022-12-18T04:34:17;97653.13;;;8.84;100.00
20015;BME280;61787;42.022;23.078;2022-12-18T04:35:19;97649.16;;;8.81;100.00
20015;BME280;61787;42.022;23.078;2022-12-18T04:36:20;97644.22;;;8.75;100.00
20015;BME280;61787;42.022;23.078;2022-12-18T04:37:22;97648.59;;;8.71;100.00
20015;BME280;61787;42.022;23.078;2022-12-18T04:38:24;97648.69;;;8.66;100.00
20015;BME280;61787;42.022;23.078;2022-12-18T04:39:25;97653.72;;;8.67;100.00
20015;BME280;61787;42.022;23.078;2022-12-18T04:40:27;97656.41;;;8.67;100.00
20015;BME280;61787;42.022;23.078;2022-12-18T04:41:28;97653.72;;;8.67;100.00
20015;BME280;61787;42.022;23.078;2022-12-18T04:42:30;97659.88;;;8.68;100.00
20015;BME280;61787;42.022;23.078;2022-12-18T04:43:31;97658.00;;;8.68;100.00
20015;BME280;61787;42.022;23.078;2022-12-18T04:44:34;97653.72;;;8.67;100.00
20015;BME280;61787;42.022;23.078;2022-12-18T04:45:35;97659.69;;;8.64;100.00
20015;BME280;61787;42.022;23.078;2022-12-18T04:46:37;97663.66;;;8.67;100.00
20015;BME280;61787;42.022;23.078;2022-12-18T04:47:39;97667.41;;;8.66;100.00
20015;BME280;61787;42.022;23.078;2022-12-18T04:48:40;97662.06;;;8.66;100.00
20015;BME280;61787;42.022;23.078;2022-12-18T04:49:42;97675.72;;;8.64;100.00
20015;BME280;61787;42.022;23.078;2022-12-18T04:50:43;97671.09;;;8.56;100.00
20015;BME280;61787;42.022;23.078;2022-12-18T04:51:45;97675.31;;;8.57;100.00
20015;BME280;61787;42.022;23.078;2022-12-18T04:52:46;97669.97;;;8.57;100.00
20015;BME280;61787;42.022;23.078;2022-12-18T04:53:48;97671.38;;;8.54;100.00
20015;BME280;61787;42.022;23.078;2022-12-18T04:54:50;97679.69;;;8.53;100.00
20015;BME280;61787;42.022;23.078;2022-12-18T04:56:02;97675.44;;;8.52;100.00
20015;BME280;61787;42.022;23.078;2022-12-18T04:57:04;97680.31;;;8.50;100.00
20015;BME280;61787;42.022;23.078;2022-12-18T04:58:06;97683.53;;;8.47;100.00
20015;BME280;61787;42.022;23.078;2022-12-18T04:59:07;97682.56;;;8.43;100.00
20015;BME280;61787;42.022;23.078;2022-12-18T05:00:10;97685.34;;;8.38;100.00
20015;BME280;61787;42.022;23.078;2022-12-18T05:01:13;97693.34;;;8.38;100.00
20015;BME280;61787;42.022;23.078;2022-12-18T05:02:15;97688.63;;;8.35;100.00
20015;BME280;61787;42.022;23.078;2022-12-18T05:03:17;97700.09;;;8.35;100.00
20015;BME280;61787;42.022;23.078;2022-12-18T05:04:19;97696.91;;;8.33;100.00
20015;BME280;61787;42.022;23.078;2022-12-18T05:05:20;97683.38;;;8.30;100.00
20015;BME280;61787;42.022;23.078;2022-12-18T05:06:22;97702.63;;;8.27;100.00
20015;BME280;61787;42.022;23.078;2022-12-18T05:07:23;97694.69;;;8.22;99.86
20015;BME280;61787;42.022;23.078;2022-12-18T05:08:25;97700.25;;;8.25;100.00
20015;BME280;61787;42.022;23.078;2022-12-18T05:09:27;97699.94;;;8.27;100.00
20015;BME280;61787;42.022;23.078;2022-12-18T05:10:29;97710.16;;;8.25;99.91
20015;BME280;61787;42.022;23.078;2022-12-18T05:11:38;97700.03;;;8.22;100.00
20015;BME280;61787;42.022;23.078;2022-12-18T05:12:39;97705.38;;;8.22;100.00
20015;BME280;61787;42.022;23.078;2022-12-18T05:14:01;97702.50;;;8.18;99.77
20015;BME280;61787;42.022;23.078;2022-12-18T05:15:03;97712.13;;;8.19;100.00
20015;BME280;61787;42.022;23.078;2022-12-18T05:16:05;97706.41;;;8.26;100.00
20015;BME280;61787;42.022;23.078;2022-12-18T05:17:07;97711.75;;;8.26;100.00
20015;BME280;61787;42.022;23.078;2022-12-18T05:18:09;97709.34;;;8.24;100.00
20015;BME280;61787;42.022;23.078;2022-12-18T05:19:10;97711.31;;;8.19;99.94
20015;BME280;61787;42.022;23.078;2022-12-18T05:20:13;97719.06;;;8.20;99.90
20015;BME280;61787;42.022;23.078;2022-12-18T05:21:15;97718.25;;;8.20;99.33
20015;BME280;61787;42.022;23.078;2022-12-18T05:22:16;97716.16;;;8.17;99.49
20015;BME280;61787;42.022;23.078;2022-12-18T05:23:18;97717.28;;;8.16;99.09
20015;BME280;61787;42.022;23.078;2022-12-18T05:24:20;97719.34;;;8.19;98.90
20015;BME280;61787;42.022;23.078;2022-12-18T05:25:22;97722.59;;;8.16;98.46
20015;BME280;61787;42.022;23.078;2022-12-18T05:26:24;97720.50;;;8.12;98.31
20015;BME280;61787;42.022;23.078;2022-12-18T05:27:26;97726.94;;;8.11;99.03
20015;BME280;61787;42.022;23.078;2022-12-18T05:28:29;97730.13;;;8.13;99.83
20015;BME280;61787;42.022;23.078;2022-12-18T05:29:31;97726.38;;;8.14;99.28
20015;BME280;61787;42.022;23.078;2022-12-18T05:30:33;97729.75;;;8.20;98.87
20015;BME280;61787;42.022;23.078;2022-12-18T05:31:35;97731.63;;;8.20;99.40
20015;BME280;61787;42.022;23.078;2022-12-18T05:32:40;97730.81;;;8.19;98.55
20015;BME280;61787;42.022;23.078;2022-12-18T05:33:41;97741.22;;;8.21;98.86
20015;BME280;61787;42.022;23.078;2022-12-18T05:34:44;97735.88;;;8.21;98.79
20015;BME280;61787;42.022;23.078;2022-12-18T05:35:53;97743.66;;;8.17;98.27
20015;BME280;61787;42.022;23.078;2022-12-18T05:36:55;97736.44;;;8.18;98.52
20015;BME280;61787;42.022;23.078;2022-12-18T05:37:56;97731.72;;;8.14;97.07
20015;BME280;61787;42.022;23.078;2022-12-18T05:38:58;97741.78;;;8.18;97.53
20015;BME280;61787;42.022;23.078;2022-12-18T05:40:03;97736.72;;;8.16;97.11
20015;BME280;61787;42.022;23.078;2022-12-18T05:41:05;97742.41;;;8.14;97.45
20015;BME280;61787;42.022;23.078;2022-12-18T05:42:07;97744.56;;;8.12;97.45
20015;BME280;61787;42.022;23.078;2022-12-18T05:43:10;97736.03;;;8.10;96.21
20015;BME280;61787;42.022;23.078;2022-12-18T05:44:15;97742.16;;;8.11;97.57
20015;BME280;61787;42.022;23.078;2022-12-18T05:45:17;97748.91;;;8.08;96.84
20015;BME280;61787;42.022;23.078;2022-12-18T05:46:18;97749.38;;;8.10;97.24
20015;BME280;61787;42.022;23.078;2022-12-18T05:47:20;97742.16;;;8.11;97.42
20015;BME280;61787;42.022;23.078;2022-12-18T05:48:22;97750.19;;;8.11;96.68
20015;BME280;61787;42.022;23.078;2022-12-18T05:49:24;97741.97;;;8.07;97.88
20015;BME280;61787;42.022;23.078;2022-12-18T05:50:25;97753.16;;;8.09;96.79
20015;BME280;61787;42.022;23.078;2022-12-18T05:51:27;97755.84;;;8.09;96.30
20015;BME280;61787;42.022;23.078;2022-12-18T05:52:30;97756.41;;;8.06;97.01
20015;BME280;61787;42.022;23.078;2022-12-18T05:53:31;97756.41;;;8.06;97.30
20015;BME280;61787;42.022;23.078;2022-12-18T05:54:33;97753.72;;;8.06;96.46
20015;BME280;61787;42.022;23.078;2022-12-18T05:55:36;97757.41;;;8.10;96.38
20015;BME280;61787;42.022;23.078;2022-12-18T05:56:38;97758.19;;;8.11;96.17
20015;BME280;61787;42.022;23.078;2022-12-18T05:57:45;97756.31;;;8.11;95.89
20015;BME280;61787;42.022;23.078;2022-12-18T05:58:51;97751.06;;;8.06;96.33